createdAt,value
2023-01-29T00:01:11.253Z,20.95
2023-01-29T00:04:13.311Z,20.90
2023-01-29T00:07:15.449Z,20.45
2023-01-29T00:10:18.096Z,18.83
2023-01-29T00:13:20.346Z,20.23
2023-01-29T00:16:22.407Z,20.10
2023-01-29T00:19:24.466Z,19.52
2023-01-29T00:22:27.271Z,19.25
2023-01-29T00:25:29.426Z,21.60
2023-01-29T00:28:31.547Z,19.42
2023-01-29T00:31:33.800Z,20.75
2023-01-29T00:34:35.971Z,22.20
2023-01-29T00:37:38.617Z,20.48
2023-01-29T00:41:00.233Z,20.52
2023-01-29T00:44:21.043Z,23.00
2023-01-29T00:47:35.113Z,19.80
2023-01-29T00:50:37.167Z,21.85
2023-01-29T00:53:39.276Z,21.48
2023-01-29T00:56:41.343Z,21.83
2023-01-29T00:59:43.505Z,21.33
2023-01-29T01:03:04.091Z,21.85
2023-01-29T01:06:07.710Z,19.55
2023-01-29T01:09:29.724Z,23.50
2023-01-29T01:12:32.549Z,24.88
2023-01-29T01:15:36.927Z,22.92
2023-01-29T01:18:39.289Z,22.65
2023-01-29T01:21:45.488Z,20.95
2023-01-29T01:24:47.603Z,22.02
2023-01-29T01:27:55.892Z,22.30
2023-01-29T01:30:58.541Z,20.50
2023-01-29T01:34:00.864Z,22.25
2023-01-29T01:37:03.032Z,21.33
2023-01-29T01:40:18.522Z,23.25
2023-01-29T01:43:21.003Z,20.58
2023-01-29T01:46:23.552Z,21.45
2023-01-29T01:49:26.094Z,20.30
2023-01-29T01:52:31.024Z,22.48
2023-01-29T01:55:37.446Z,19.50
2023-01-29T01:58:47.236Z,21.75
2023-01-29T02:01:53.739Z,22.35
2023-01-29T02:05:14.294Z,21.55
2023-01-29T02:08:41.248Z,23.63
2023-01-29T02:11:43.377Z,21.50
2023-01-29T02:14:46.649Z,22.38
2023-01-29T02:17:48.945Z,22.55
2023-01-29T02:21:25.061Z,23.67
2023-01-29T02:24:52.093Z,24.52
2023-01-29T02:28:12.956Z,22.48
2023-01-29T02:31:21.173Z,24.38
2023-01-29T02:35:05.830Z,24.52
2023-01-29T02:38:19.951Z,24.33
2023-01-29T02:41:40.847Z,23.67
2023-01-29T02:45:05.004Z,23.15
2023-01-29T02:48:08.349Z,24.17
2023-01-29T02:51:49.821Z,27.30
2023-01-29T02:55:08.797Z,23.15
2023-01-29T02:58:20.838Z,25.25
2023-01-29T03:01:52.127Z,24.98
2023-01-29T03:05:01.885Z,23.25
2023-01-29T03:08:10.361Z,28.23
2023-01-29T03:11:15.323Z,25.98
2023-01-29T03:14:58.894Z,27.17
2023-01-29T03:18:08.927Z,25.40
2023-01-29T03:21:35.924Z,19.77
2023-01-29T03:28:26.000Z,26.52
2023-01-29T03:31:48.681Z,30.02
2023-01-29T03:34:57.527Z,27.88
2023-01-29T03:38:04.423Z,26.52
2023-01-29T03:41:12.192Z,27.45
2023-01-29T03:44:31.150Z,28.25
2023-01-29T03:47:57.134Z,28.25
2023-01-29T03:51:28.499Z,27.45
2023-01-29T03:54:39.339Z,26.60
2023-01-29T03:57:52.133Z,28.23
2023-01-29T04:01:20.228Z,27.88
2023-01-29T04:04:26.868Z,30.95
2023-01-29T04:07:33.559Z,28.65
2023-01-29T04:10:40.872Z,31.35
2023-01-29T04:13:45.108Z,30.38
2023-01-29T04:16:53.457Z,32.75
2023-01-29T04:20:16.759Z,28.15
2023-01-29T04:23:25.703Z,29.95
2023-01-29T04:26:28.442Z,29.70
2023-01-29T04:30:00.517Z,30.73
2023-01-29T04:33:22.717Z,30.63
2023-01-29T04:36:25.408Z,31.48
2023-01-29T04:39:52.122Z,29.25
2023-01-29T04:43:05.341Z,33.60
2023-01-29T04:46:33.966Z,31.70
2023-01-29T04:49:36.050Z,32.70
2023-01-29T04:53:00.693Z,29.77
2023-01-29T04:56:37.552Z,32.97
2023-01-29T04:59:45.822Z,33.42
2023-01-29T05:02:49.427Z,33.05
2023-01-29T05:05:51.845Z,33.70
2023-01-29T05:08:55.594Z,31.65
2023-01-29T05:11:58.262Z,29.05
2023-01-29T05:15:03.568Z,30.65
2023-01-29T05:18:08.877Z,30.00
2023-01-29T05:21:11.081Z,32.70
2023-01-29T05:24:19.379Z,30.02
2023-01-29T05:27:51.232Z,32.72
2023-01-29T05:30:55.613Z,33.67
2023-01-29T05:33:57.897Z,35.03
2023-01-29T05:37:00.111Z,34.47
2023-01-29T05:40:02.258Z,39.13
2023-01-29T05:43:05.352Z,38.65
2023-01-29T05:46:07.593Z,38.10
2023-01-29T05:49:09.654Z,38.95
2023-01-29T05:52:11.680Z,41.30
2023-01-29T05:55:13.727Z,40.60
2023-01-29T05:58:15.876Z,35.63
2023-01-29T06:01:20.682Z,42.35
2023-01-29T06:04:22.796Z,41.75
2023-01-29T06:07:24.961Z,42.83
2023-01-29T06:10:27.115Z,42.85
2023-01-29T06:13:29.396Z,46.33
2023-01-29T06:16:31.550Z,40.45
2023-01-29T06:19:33.705Z,45.28
2023-01-29T06:22:35.816Z,40.85
2023-01-29T06:25:38.171Z,44.53
2023-01-29T06:28:40.532Z,49.72
2023-01-29T06:31:42.662Z,47.92
2023-01-29T06:34:44.854Z,48.03
2023-01-29T06:37:46.926Z,48.63
2023-01-29T06:40:49.039Z,52.70
2023-01-29T06:43:51.603Z,47.85
2023-01-29T06:46:53.813Z,48.03
2023-01-29T06:50:03.833Z,51.80
2023-01-29T06:53:05.903Z,49.92
2023-01-29T06:56:08.510Z,53.53
2023-01-29T06:59:12.585Z,51.28
2023-01-29T07:02:14.866Z,46.92
2023-01-29T07:05:17.023Z,50.80
2023-01-29T07:08:22.741Z,48.50
2023-01-29T07:11:24.875Z,50.27
2023-01-29T07:14:27.146Z,49.88
2023-01-29T07:17:29.314Z,52.95
2023-01-29T07:20:32.209Z,49.72
2023-01-29T07:23:35.834Z,50.13
2023-01-29T07:26:38.663Z,46.08
2023-01-29T07:29:41.199Z,48.53
2023-01-29T07:32:43.822Z,45.60
2023-01-29T07:35:45.903Z,48.30
2023-01-29T07:38:51.784Z,49.63
2023-01-29T07:41:53.840Z,50.42
2023-01-29T07:44:58.237Z,47.20
2023-01-29T07:48:00.411Z,51.42
2023-01-29T07:51:02.503Z,48.45
2023-01-29T07:54:04.663Z,47.35
2023-01-29T07:57:06.684Z,51.60
2023-01-29T08:00:10.314Z,47.78
2023-01-29T08:03:17.678Z,47.92
2023-01-29T08:06:19.887Z,50.08
2023-01-29T08:09:21.988Z,48.60
2023-01-29T08:12:24.105Z,46.50
2023-01-29T08:15:26.854Z,49.28
2023-01-29T08:18:29.164Z,44.60
2023-01-29T08:21:31.293Z,50.72
2023-01-29T08:24:47.565Z,45.42
2023-01-29T08:27:57.873Z,40.28
2023-01-29T08:31:00.035Z,38.10
2023-01-29T08:34:02.196Z,42.07
2023-01-29T08:37:04.719Z,39.25
2023-01-29T08:40:09.494Z,38.35
2023-01-29T08:43:13.824Z,36.88
2023-01-29T08:46:16.886Z,37.47
2023-01-29T08:49:19.868Z,38.13
2023-01-29T08:52:23.291Z,37.22
2023-01-29T08:55:27.535Z,35.92
2023-01-29T08:58:30.436Z,34.25
2023-01-29T09:01:32.829Z,37.38
2023-01-29T09:04:35.010Z,45.22
2023-01-29T09:07:37.152Z,33.08
2023-01-29T09:10:39.433Z,38.45
2023-01-29T09:13:41.513Z,35.17
2023-01-29T09:16:43.907Z,34.53
2023-01-29T09:19:45.998Z,35.65
2023-01-29T09:22:49.618Z,35.70
2023-01-29T09:25:51.758Z,36.80
2023-01-29T09:28:53.876Z,31.65
2023-01-29T09:31:56.011Z,34.95
2023-01-29T09:34:58.134Z,35.55
2023-01-29T09:38:00.465Z,35.25
2023-01-29T09:41:28.351Z,36.15
2023-01-29T09:44:55.023Z,33.22
2023-01-29T09:48:00.468Z,31.03
2023-01-29T09:51:07.249Z,29.13
2023-01-29T09:54:12.267Z,32.63
2023-01-29T09:57:24.679Z,32.65
2023-01-29T10:00:47.427Z,30.50
2023-01-29T10:04:06.549Z,33.42
2023-01-29T10:07:23.035Z,34.50
2023-01-29T10:10:46.727Z,33.85
2023-01-29T10:13:59.581Z,32.83
2023-01-29T10:17:20.350Z,30.77
2023-01-29T10:20:46.065Z,32.95
2023-01-29T10:23:59.189Z,34.63
2023-01-29T10:27:02.765Z,31.88
2023-01-29T10:30:09.651Z,30.83
2023-01-29T10:33:25.726Z,32.00
2023-01-29T10:36:39.979Z,35.78
2023-01-29T10:39:42.231Z,35.13
2023-01-29T10:43:19.235Z,39.22
2023-01-29T10:46:45.701Z,33.05
2023-01-29T10:50:06.675Z,34.67
2023-01-29T10:53:33.507Z,34.60
2023-01-29T10:57:00.160Z,35.87
2023-01-29T11:00:26.737Z,37.87
2023-01-29T11:03:32.263Z,36.83
2023-01-29T11:06:37.412Z,28.40
2023-01-29T11:09:45.823Z,32.25
2023-01-29T11:12:49.537Z,34.58
2023-01-29T11:15:53.559Z,40.53
2023-01-29T11:18:59.960Z,33.03
2023-01-29T11:22:04.546Z,35.83
2023-01-29T11:25:20.375Z,34.13
2023-01-29T11:28:45.307Z,32.30
2023-01-29T11:31:48.948Z,32.92
2023-01-29T11:35:16.665Z,33.47
2023-01-29T11:38:28.814Z,38.72
2023-01-29T11:41:44.120Z,37.05
2023-01-29T11:44:46.706Z,37.75
2023-01-29T11:47:55.865Z,33.85
2023-01-29T11:51:01.168Z,37.13
2023-01-29T11:54:05.861Z,45.58
2023-01-29T11:57:21.723Z,38.38
2023-01-29T12:00:48.095Z,37.15
2023-01-29T12:03:54.255Z,35.45
2023-01-29T12:06:56.850Z,32.97
2023-01-29T12:10:00.277Z,37.85
2023-01-29T12:13:12.181Z,37.67
2023-01-29T12:16:20.659Z,35.65
2023-01-29T12:19:32.025Z,36.53
2023-01-29T12:23:16.287Z,37.67
2023-01-29T12:26:31.410Z,34.47
2023-01-29T12:30:09.389Z,35.22
2023-01-29T12:33:20.596Z,35.55
2023-01-29T12:36:36.932Z,37.85
2023-01-29T12:39:39.285Z,39.08
2023-01-29T12:42:47.108Z,39.15
2023-01-29T12:45:54.362Z,34.92
2023-01-29T12:49:01.495Z,37.20
2023-01-29T12:52:18.081Z,36.40
2023-01-29T12:55:41.817Z,37.35
2023-01-29T12:58:47.697Z,36.42
2023-01-29T13:01:57.031Z,42.08
2023-01-29T13:05:16.533Z,41.15
2023-01-29T13:08:41.370Z,37.13
2023-01-29T13:12:03.842Z,40.72
2023-01-29T13:15:23.300Z,43.97
2023-01-29T13:18:37.459Z,42.63
2023-01-29T13:21:45.035Z,43.22
2023-01-29T13:25:02.263Z,40.72
2023-01-29T13:28:06.531Z,45.35
2023-01-29T13:31:21.530Z,41.80
2023-01-29T13:34:28.590Z,34.80
2023-01-29T13:37:37.444Z,47.03
2023-01-29T13:40:39.807Z,46.22
2023-01-29T13:43:48.610Z,46.92
2023-01-29T13:46:58.943Z,42.35
2023-01-29T13:50:07.845Z,45.58
2023-01-29T13:53:23.263Z,50.25
2023-01-29T13:56:29.238Z,45.58
2023-01-29T13:59:54.633Z,42.72
2023-01-29T14:03:08.711Z,42.25
2023-01-29T14:06:11.191Z,43.80
2023-01-29T14:09:45.923Z,47.00
2023-01-29T14:13:15.850Z,41.42
2023-01-29T14:16:18.078Z,45.78
2023-01-29T14:19:20.709Z,45.55
2023-01-29T14:22:26.869Z,47.92
2023-01-29T14:25:38.310Z,42.88
2023-01-29T14:28:40.868Z,47.35
2023-01-29T14:32:05.886Z,46.70
2023-01-29T14:35:19.076Z,53.65
2023-01-29T14:38:23.689Z,41.78
2023-01-29T14:41:31.972Z,40.20
2023-01-29T14:44:47.396Z,40.00
2023-01-29T14:47:49.564Z,45.08
2023-01-29T14:50:56.234Z,41.47
2023-01-29T14:54:23.280Z,43.58
2023-01-29T14:57:26.291Z,41.15
2023-01-29T15:00:30.653Z,47.10
2023-01-29T15:03:39.773Z,43.92
2023-01-29T15:06:55.184Z,48.25
2023-01-29T15:10:21.977Z,50.45
2023-01-29T15:13:36.124Z,44.47
2023-01-29T15:17:06.273Z,47.42
2023-01-29T15:20:28.218Z,46.97
2023-01-29T15:23:32.123Z,42.45
2023-01-29T15:26:36.779Z,45.95
2023-01-29T15:29:40.114Z,45.00
2023-01-29T15:32:42.694Z,44.58
2023-01-29T15:35:46.294Z,45.80
2023-01-29T15:38:48.792Z,43.97
2023-01-29T15:42:04.947Z,42.60
2023-01-29T15:45:40.367Z,43.20
2023-01-29T15:48:44.641Z,45.08
2023-01-29T15:51:48.451Z,43.90
2023-01-29T15:54:51.670Z,47.15
2023-01-29T15:57:54.229Z,47.15
2023-01-29T16:00:58.248Z,49.88
2023-01-29T16:04:03.037Z,41.40
2023-01-29T16:07:05.192Z,51.92
2023-01-29T16:10:13.992Z,54.05
2023-01-29T16:13:22.655Z,52.40
2023-01-29T16:16:26.541Z,51.80
2023-01-29T16:19:29.720Z,55.70
2023-01-29T16:22:37.052Z,55.72
2023-01-29T16:25:39.500Z,61.53
2023-01-29T16:28:43.092Z,57.08
2023-01-29T16:31:46.948Z,61.92
2023-01-29T16:34:50.097Z,64.07
2023-01-29T16:38:00.032Z,61.03
2023-01-29T16:41:27.627Z,59.58
2023-01-29T16:44:39.298Z,69.53
2023-01-29T16:47:41.612Z,65.72
2023-01-29T16:50:54.597Z,73.28
2023-01-29T16:54:06.620Z,74.05
2023-01-29T16:57:16.390Z,71.38
2023-01-29T17:00:36.913Z,66.38
2023-01-29T17:03:40.621Z,78.05
2023-01-29T17:06:54.251Z,59.50
2023-01-29T17:10:01.074Z,74.57
2023-01-29T17:13:09.740Z,72.32
2023-01-29T17:16:51.575Z,69.82
2023-01-29T17:19:53.603Z,74.10
2023-01-29T17:22:55.832Z,78.93
2023-01-29T17:25:59.646Z,82.80
2023-01-29T17:29:01.892Z,54.28
2023-01-29T17:32:04.144Z,83.53
2023-01-29T17:35:06.845Z,75.95
2023-01-29T17:38:25.501Z,81.55
2023-01-29T17:41:30.536Z,74.22
2023-01-29T17:44:32.845Z,79.55
2023-01-29T17:47:34.984Z,76.78
2023-01-29T17:50:39.759Z,73.97
2023-01-29T17:53:45.984Z,78.05
2023-01-29T17:59:50.917Z,75.68
2023-01-29T18:02:53.276Z,71.85
2023-01-29T18:05:55.547Z,71.95
2023-01-29T18:08:57.738Z,72.95
2023-01-29T18:11:59.851Z,71.65
2023-01-29T18:15:01.979Z,73.57
2023-01-29T18:18:06.097Z,65.28
2023-01-29T18:21:08.133Z,70.20
2023-01-29T18:24:10.420Z,62.80
2023-01-29T18:27:12.487Z,64.53
2023-01-29T18:30:14.918Z,67.47
2023-01-29T18:33:17.693Z,58.95
2023-01-29T18:36:19.807Z,62.22
2023-01-29T18:39:21.887Z,72.80
2023-01-29T18:42:24.150Z,98.38
2023-01-29T18:45:27.117Z,70.07
2023-01-29T18:48:30.524Z,66.65
2023-01-29T18:51:32.921Z,72.50
2023-01-29T18:54:35.015Z,66.53
2023-01-29T18:58:33.940Z,67.32
2023-01-29T19:01:01.784Z,68.63
2023-01-29T19:04:03.980Z,67.80
2023-01-29T19:07:06.121Z,64.57
2023-01-29T19:10:12.640Z,72.82
2023-01-29T19:13:15.955Z,68.95
2023-01-29T19:16:18.019Z,58.28
2023-01-29T19:19:20.061Z,63.50
2023-01-29T19:22:22.259Z,66.03
2023-01-29T19:25:24.518Z,52.72
2023-01-29T19:28:26.805Z,65.47
2023-01-29T19:31:29.163Z,58.78
2023-01-29T19:34:31.258Z,60.13
2023-01-29T19:37:33.462Z,62.03
2023-01-29T19:40:35.863Z,57.72
2023-01-29T19:43:40.821Z,61.30
2023-01-29T19:46:43.053Z,60.63
2023-01-29T19:49:45.390Z,54.28
2023-01-29T19:52:51.908Z,67.70
2023-01-29T19:56:05.542Z,52.92
2023-01-29T19:59:07.819Z,52.63
2023-01-29T20:02:09.956Z,58.95
2023-01-29T20:05:13.113Z,58.42
2023-01-29T20:08:15.320Z,62.83
2023-01-29T20:11:20.319Z,56.50
2023-01-29T20:14:22.581Z,55.83
2023-01-29T20:17:24.585Z,50.25
2023-01-29T20:20:27.723Z,57.60
2023-01-29T20:23:38.000Z,57.13
2023-01-29T20:26:40.782Z,62.43
2023-01-29T20:29:45.432Z,55.63
2023-01-29T20:32:47.654Z,60.00
2023-01-29T20:36:02.046Z,52.88
2023-01-29T20:39:04.355Z,50.38
2023-01-29T20:42:06.480Z,60.55
2023-01-29T20:45:08.951Z,59.30
2023-01-29T20:48:11.051Z,59.28
2023-01-29T20:51:16.640Z,54.17
2023-01-29T20:54:18.777Z,53.47
2023-01-29T20:57:21.049Z,54.97
2023-01-29T21:00:23.232Z,56.90
2023-01-29T21:03:25.557Z,55.78
2023-01-29T21:06:29.741Z,59.30
2023-01-29T21:09:31.796Z,58.50
2023-01-29T21:12:33.918Z,57.92
2023-01-29T21:15:35.980Z,56.15
2023-01-29T21:18:38.031Z,53.10
2023-01-29T21:21:40.086Z,61.83
2023-01-29T21:24:42.266Z,50.97
2023-01-29T21:27:44.472Z,58.65
2023-01-29T21:30:47.939Z,58.83
2023-01-29T21:33:50.117Z,62.15
2023-01-29T21:36:52.282Z,63.97
2023-01-29T21:39:54.314Z,60.03
2023-01-29T21:43:11.558Z,57.83
2023-01-29T21:46:13.961Z,48.05
2023-01-29T21:49:16.102Z,60.97
2023-01-29T21:52:18.460Z,61.85
2023-01-29T21:55:20.552Z,66.10
2023-01-29T21:58:22.672Z,62.72
2023-01-29T22:01:37.272Z,61.25
2023-01-29T22:04:40.844Z,62.67
2023-01-29T22:07:43.097Z,61.90
2023-01-29T22:10:45.451Z,68.43
2023-01-29T22:13:47.729Z,72.28
2023-01-29T22:16:49.865Z,64.63
2023-01-29T22:19:53.493Z,76.68
2023-01-29T22:22:57.743Z,75.20
2023-01-29T22:26:07.346Z,68.70
2023-01-29T22:29:12.152Z,67.78
2023-01-29T22:32:14.349Z,65.60
2023-01-29T22:35:17.134Z,67.38
2023-01-29T22:38:19.256Z,67.70
2023-01-29T22:41:21.304Z,59.47
2023-01-29T22:44:23.524Z,64.78
2023-01-29T22:47:25.683Z,66.75
2023-01-29T22:50:27.818Z,65.05
2023-01-29T22:53:30.093Z,65.10
2023-01-29T22:56:32.204Z,66.72
2023-01-29T22:59:34.340Z,64.80
2023-01-29T23:02:37.100Z,64.22
2023-01-29T23:05:39.757Z,60.03
2023-01-29T23:08:42.008Z,60.05
2023-01-29T23:11:44.025Z,58.50
2023-01-29T23:14:46.260Z,60.20
2023-01-29T23:17:48.560Z,60.47
2023-01-29T23:20:56.967Z,60.33
2023-01-29T23:23:59.718Z,64.65
2023-01-29T23:27:16.821Z,58.20
2023-01-29T23:30:19.238Z,56.08
2023-01-29T23:33:21.689Z,52.88
2023-01-29T23:36:23.993Z,58.78
2023-01-29T23:39:26.075Z,52.95
2023-01-29T23:42:28.240Z,50.80
2023-01-29T23:45:30.334Z,38.58
2023-01-29T23:48:32.388Z,55.13
2023-01-29T23:51:34.765Z,54.72
2023-01-29T23:54:36.840Z,51.60
2023-01-29T23:57:38.895Z,58.92
